sensor_id;sensor_type;location;lat;lon;timestamp;P1;durP1;ratioP1;P2;durP2;ratioP2
142;SDS011;63667;49.046;8.468;2023-03-23T00:00:35;4.20;;;2.50;;
142;SDS011;63667;49.046;8.468;2023-03-23T00:03:02;2.67;;;2.40;;
142;SDS011;63667;49.046;8.468;2023-03-23T00:05:29;2.90;;;2.33;;
142;SDS011;63667;49.046;8.468;2023-03-23T00:07:56;5.70;;;2.77;;
142;SDS011;63667;49.046;8.468;2023-03-23T00:10:27;3.10;;;2.20;;
142;SDS011;63667;49.046;8.468;2023-03-23T00:12:58;4.50;;;2.83;;
142;SDS011;63667;49.046;8.468;2023-03-23T00:15:28;2.90;;;2.43;;
142;SDS011;63667;49.046;8.468;2023-03-23T00:17:59;3.60;;;2.63;;
142;SDS011;63667;49.046;8.468;2023-03-23T00:20:31;2.80;;;2.60;;
142;SDS011;63667;49.046;8.468;2023-03-23T00:23:06;2.93;;;2.47;;
142;SDS011;63667;49.046;8.468;2023-03-23T00:25:34;5.47;;;3.07;;
142;SDS011;63667;49.046;8.468;2023-03-23T00:28:01;3.23;;;2.60;;
142;SDS011;63667;49.046;8.468;2023-03-23T00:30:28;3.80;;;2.50;;
142;SDS011;63667;49.046;8.468;2023-03-23T00:32:55;2.77;;;2.57;;
142;SDS011;63667;49.046;8.468;2023-03-23T00:35:23;3.63;;;3.07;;
142;SDS011;63667;49.046;8.468;2023-03-23T00:37:53;4.63;;;2.70;;
142;SDS011;63667;49.046;8.468;2023-03-23T00:40:21;6.10;;;2.40;;
142;SDS011;63667;49.046;8.468;2023-03-23T00:42:48;3.13;;;2.70;;
142;SDS011;63667;49.046;8.468;2023-03-23T00:45:15;3.27;;;2.50;;
142;SDS011;63667;49.046;8.468;2023-03-23T00:47:42;3.07;;;2.60;;
142;SDS011;63667;49.046;8.468;2023-03-23T00:50:12;3.57;;;2.70;;
142;SDS011;63667;49.046;8.468;2023-03-23T00:52:40;4.13;;;2.70;;
142;SDS011;63667;49.046;8.468;2023-03-23T00:55:07;4.40;;;2.80;;
142;SDS011;63667;49.046;8.468;2023-03-23T00:57:35;3.37;;;2.70;;
142;SDS011;63667;49.046;8.468;2023-03-23T01:00:01;3.10;;;2.67;;
142;SDS011;63667;49.046;8.468;2023-03-23T01:02:34;5.90;;;2.70;;
142;SDS011;63667;49.046;8.468;2023-03-23T01:05:02;2.77;;;2.57;;
142;SDS011;63667;49.046;8.468;2023-03-23T01:07:29;4.03;;;2.80;;
142;SDS011;63667;49.046;8.468;2023-03-23T01:09:57;3.07;;;2.83;;
142;SDS011;63667;49.046;8.468;2023-03-23T01:12:26;4.50;;;3.00;;
142;SDS011;63667;49.046;8.468;2023-03-23T01:14:53;3.80;;;2.43;;
142;SDS011;63667;49.046;8.468;2023-03-23T01:17:22;2.90;;;2.70;;
142;SDS011;63667;49.046;8.468;2023-03-23T01:19:49;5.90;;;3.00;;
142;SDS011;63667;49.046;8.468;2023-03-23T01:22:17;3.00;;;2.60;;
142;SDS011;63667;49.046;8.468;2023-03-23T01:24:44;2.70;;;2.50;;
142;SDS011;63667;49.046;8.468;2023-03-23T01:27:11;3.67;;;2.90;;
142;SDS011;63667;49.046;8.468;2023-03-23T01:29:38;4.83;;;2.97;;
142;SDS011;63667;49.046;8.468;2023-03-23T01:32:06;14.53;;;2.83;;
142;SDS011;63667;49.046;8.468;2023-03-23T01:34:33;4.43;;;2.87;;
142;SDS011;63667;49.046;8.468;2023-03-23T01:37:00;3.30;;;2.67;;
142;SDS011;63667;49.046;8.468;2023-03-23T01:39:28;3.40;;;2.60;;
142;SDS011;63667;49.046;8.468;2023-03-23T01:41:55;3.50;;;2.67;;
142;SDS011;63667;49.046;8.468;2023-03-23T01:46:50;2.43;;;2.30;;
142;SDS011;63667;49.046;8.468;2023-03-23T01:49:19;3.20;;;2.90;;
142;SDS011;63667;49.046;8.468;2023-03-23T01:51:49;3.20;;;2.70;;
142;SDS011;63667;49.046;8.468;2023-03-23T01:54:18;3.60;;;3.07;;
142;SDS011;63667;49.046;8.468;2023-03-23T01:56:47;5.33;;;3.10;;
142;SDS011;63667;49.046;8.468;2023-03-23T01:59:15;2.50;;;2.40;;
142;SDS011;63667;49.046;8.468;2023-03-23T02:01:43;3.37;;;2.80;;
142;SDS011;63667;49.046;8.468;2023-03-23T02:04:13;3.03;;;2.57;;
142;SDS011;63667;49.046;8.468;2023-03-23T02:06:41;4.40;;;3.10;;
142;SDS011;63667;49.046;8.468;2023-03-23T02:09:08;3.00;;;2.83;;
142;SDS011;63667;49.046;8.468;2023-03-23T02:11:35;3.00;;;2.80;;
142;SDS011;63667;49.046;8.468;2023-03-23T02:14:02;2.90;;;2.70;;
142;SDS011;63667;49.046;8.468;2023-03-23T02:16:34;5.17;;;3.10;;
142;SDS011;63667;49.046;8.468;2023-03-23T02:27:03;3.53;;;2.63;;
142;SDS011;63667;49.046;8.468;2023-03-23T02:32:10;3.47;;;3.23;;
142;SDS011;63667;49.046;8.468;2023-03-23T02:34:48;4.33;;;2.80;;
142;SDS011;63667;49.046;8.468;2023-03-23T02:37:27;3.30;;;3.00;;
142;SDS011;63667;49.046;8.468;2023-03-23T02:40:03;4.30;;;3.00;;
142;SDS011;63667;49.046;8.468;2023-03-23T02:42:35;5.67;;;2.97;;
142;SDS011;63667;49.046;8.468;2023-03-23T02:45:04;3.00;;;2.80;;
142;SDS011;63667;49.046;8.468;2023-03-23T02:47:32;2.97;;;2.80;;
142;SDS011;63667;49.046;8.468;2023-03-23T02:50:01;4.20;;;2.87;;
142;SDS011;63667;49.046;8.468;2023-03-23T02:52:29;3.50;;;2.70;;
142;SDS011;63667;49.046;8.468;2023-03-23T02:54:57;3.13;;;3.00;;
142;SDS011;63667;49.046;8.468;2023-03-23T02:57:25;3.20;;;2.60;;
142;SDS011;63667;49.046;8.468;2023-03-23T02:59:52;4.20;;;2.60;;
142;SDS011;63667;49.046;8.468;2023-03-23T03:02:24;4.33;;;3.13;;
142;SDS011;63667;49.046;8.468;2023-03-23T03:04:53;4.93;;;3.00;;
142;SDS011;63667;49.046;8.468;2023-03-23T03:07:26;3.27;;;3.10;;
142;SDS011;63667;49.046;8.468;2023-03-23T03:09:58;5.40;;;2.73;;
142;SDS011;63667;49.046;8.468;2023-03-23T03:15:22;3.00;;;2.80;;
142;SDS011;63667;49.046;8.468;2023-03-23T03:17:48;2.90;;;2.67;;
142;SDS011;63667;49.046;8.468;2023-03-23T03:20:17;4.73;;;2.73;;
142;SDS011;63667;49.046;8.468;2023-03-23T03:22:45;4.57;;;3.13;;
142;SDS011;63667;49.046;8.468;2023-03-23T03:25:14;3.80;;;3.20;;
142;SDS011;63667;49.046;8.468;2023-03-23T03:27:43;4.67;;;3.20;;
142;SDS011;63667;49.046;8.468;2023-03-23T03:30:11;9.03;;;3.50;;
142;SDS011;63667;49.046;8.468;2023-03-23T03:32:43;4.93;;;3.13;;
142;SDS011;63667;49.046;8.468;2023-03-23T03:35:12;3.43;;;3.07;;
142;SDS011;63667;49.046;8.468;2023-03-23T03:37:40;4.33;;;3.27;;
142;SDS011;63667;49.046;8.468;2023-03-23T03:40:07;4.50;;;3.40;;
142;SDS011;63667;49.046;8.468;2023-03-23T03:42:41;6.83;;;3.30;;
142;SDS011;63667;49.046;8.468;2023-03-23T03:45:09;4.50;;;3.10;;
142;SDS011;63667;49.046;8.468;2023-03-23T03:47:37;3.90;;;2.87;;
142;SDS011;63667;49.046;8.468;2023-03-23T03:50:04;4.70;;;3.50;;
142;SDS011;63667;49.046;8.468;2023-03-23T03:52:32;3.77;;;3.00;;
142;SDS011;63667;49.046;8.468;2023-03-23T03:54:59;3.63;;;3.20;;
142;SDS011;63667;49.046;8.468;2023-03-23T03:57:27;3.33;;;3.10;;
142;SDS011;63667;49.046;8.468;2023-03-23T03:59:54;11.60;;;4.17;;
142;SDS011;63667;49.046;8.468;2023-03-23T04:02:21;3.60;;;3.30;;
142;SDS011;63667;49.046;8.468;2023-03-23T04:04:49;4.20;;;3.37;;
142;SDS011;63667;49.046;8.468;2023-03-23T04:07:18;4.23;;;3.60;;
142;SDS011;63667;49.046;8.468;2023-03-23T04:09:47;6.50;;;3.33;;
142;SDS011;63667;49.046;8.468;2023-03-23T04:12:15;4.30;;;3.10;;
142;SDS011;63667;49.046;8.468;2023-03-23T04:14:42;3.43;;;3.23;;
142;SDS011;63667;49.046;8.468;2023-03-23T04:17:10;3.60;;;3.07;;
142;SDS011;63667;49.046;8.468;2023-03-23T04:19:37;4.70;;;3.20;;
142;SDS011;63667;49.046;8.468;2023-03-23T04:22:04;3.47;;;3.00;;
142;SDS011;63667;49.046;8.468;2023-03-23T04:24:32;4.53;;;3.33;;
142;SDS011;63667;49.046;8.468;2023-03-23T04:27:01;4.70;;;3.00;;
142;SDS011;63667;49.046;8.468;2023-03-23T04:29:29;4.30;;;3.47;;
142;SDS011;63667;49.046;8.468;2023-03-23T04:31:56;3.47;;;3.07;;
142;SDS011;63667;49.046;8.468;2023-03-23T04:34:23;5.03;;;3.37;;
142;SDS011;63667;49.046;8.468;2023-03-23T04:36:51;5.67;;;3.20;;
142;SDS011;63667;49.046;8.468;2023-03-23T04:39:18;3.83;;;3.27;;
142;SDS011;63667;49.046;8.468;2023-03-23T04:41:46;4.10;;;3.30;;
142;SDS011;63667;49.046;8.468;2023-03-23T04:44:13;4.13;;;3.43;;
142;SDS011;63667;49.046;8.468;2023-03-23T04:46:47;3.53;;;3.20;;
142;SDS011;63667;49.046;8.468;2023-03-23T04:49:15;4.53;;;3.50;;
142;SDS011;63667;49.046;8.468;2023-03-23T04:52:05;4.20;;;3.30;;
142;SDS011;63667;49.046;8.468;2023-03-23T04:54:32;4.00;;;3.10;;
142;SDS011;63667;49.046;8.468;2023-03-23T04:57:00;3.60;;;3.27;;
142;SDS011;63667;49.046;8.468;2023-03-23T04:59:27;5.30;;;4.00;;
142;SDS011;63667;49.046;8.468;2023-03-23T05:01:56;4.77;;;3.57;;
142;SDS011;63667;49.046;8.468;2023-03-23T05:04:24;3.67;;;3.13;;
142;SDS011;63667;49.046;8.468;2023-03-23T05:06:51;4.97;;;3.00;;
142;SDS011;63667;49.046;8.468;2023-03-23T05:09:18;4.90;;;3.50;;
142;SDS011;63667;49.046;8.468;2023-03-23T05:11:45;6.30;;;3.20;;
142;SDS011;63667;49.046;8.468;2023-03-23T05:14:12;4.10;;;3.17;;
142;SDS011;63667;49.046;8.468;2023-03-23T05:16:39;12.60;;;3.40;;
142;SDS011;63667;49.046;8.468;2023-03-23T05:19:07;5.77;;;4.00;;
142;SDS011;63667;49.046;8.468;2023-03-23T05:21:34;4.47;;;3.57;;
142;SDS011;63667;49.046;8.468;2023-03-23T05:24:03;5.90;;;3.80;;
142;SDS011;63667;49.046;8.468;2023-03-23T05:26:30;3.30;;;3.03;;
142;SDS011;63667;49.046;8.468;2023-03-23T05:28:58;8.63;;;3.90;;
142;SDS011;63667;49.046;8.468;2023-03-23T05:31:25;5.10;;;3.23;;
142;SDS011;63667;49.046;8.468;2023-03-23T05:33:52;7.10;;;3.50;;
142;SDS011;63667;49.046;8.468;2023-03-23T05:36:19;3.30;;;3.17;;
142;SDS011;63667;49.046;8.468;2023-03-23T05:38:50;5.37;;;3.47;;
142;SDS011;63667;49.046;8.468;2023-03-23T05:41:18;11.93;;;3.87;;
142;SDS011;63667;49.046;8.468;2023-03-23T05:43:45;5.43;;;3.70;;
142;SDS011;63667;49.046;8.468;2023-03-23T05:46:13;5.80;;;3.60;;
142;SDS011;63667;49.046;8.468;2023-03-23T05:48:40;5.53;;;3.87;;
142;SDS011;63667;49.046;8.468;2023-03-23T05:51:08;6.23;;;3.73;;
142;SDS011;63667;49.046;8.468;2023-03-23T05:53:36;6.63;;;3.83;;
142;SDS011;63667;49.046;8.468;2023-03-23T05:56:04;5.63;;;3.60;;
142;SDS011;63667;49.046;8.468;2023-03-23T05:58:32;6.23;;;3.73;;
142;SDS011;63667;49.046;8.468;2023-03-23T06:01:00;5.03;;;3.13;;
142;SDS011;63667;49.046;8.468;2023-03-23T06:03:27;5.10;;;3.77;;
142;SDS011;63667;49.046;8.468;2023-03-23T06:05:54;4.90;;;3.87;;
142;SDS011;63667;49.046;8.468;2023-03-23T06:08:22;5.37;;;4.00;;
142;SDS011;63667;49.046;8.468;2023-03-23T06:10:49;7.57;;;4.23;;
142;SDS011;63667;49.046;8.468;2023-03-23T06:13:17;5.13;;;3.60;;
142;SDS011;63667;49.046;8.468;2023-03-23T06:15:44;7.37;;;4.43;;
142;SDS011;63667;49.046;8.468;2023-03-23T06:18:13;6.07;;;3.80;;
142;SDS011;63667;49.046;8.468;2023-03-23T06:20:40;5.63;;;4.37;;
142;SDS011;63667;49.046;8.468;2023-03-23T06:23:09;7.30;;;4.40;;
142;SDS011;63667;49.046;8.468;2023-03-23T06:25:39;5.30;;;3.90;;
142;SDS011;63667;49.046;8.468;2023-03-23T06:28:06;5.03;;;4.33;;
142;SDS011;63667;49.046;8.468;2023-03-23T06:30:35;7.60;;;4.40;;
142;SDS011;63667;49.046;8.468;2023-03-23T06:33:02;6.47;;;4.50;;
142;SDS011;63667;49.046;8.468;2023-03-23T06:35:31;6.43;;;3.97;;
142;SDS011;63667;49.046;8.468;2023-03-23T06:37:58;6.90;;;4.20;;
142;SDS011;63667;49.046;8.468;2023-03-23T06:40:27;4.90;;;3.97;;
142;SDS011;63667;49.046;8.468;2023-03-23T06:42:57;6.67;;;4.73;;
142;SDS011;63667;49.046;8.468;2023-03-23T06:45:25;15.60;;;5.00;;
142;SDS011;63667;49.046;8.468;2023-03-23T06:47:52;6.10;;;4.50;;
142;SDS011;63667;49.046;8.468;2023-03-23T06:50:20;6.07;;;4.57;;
142;SDS011;63667;49.046;8.468;2023-03-23T06:52:47;7.93;;;4.47;;
142;SDS011;63667;49.046;8.468;2023-03-23T06:55:14;7.90;;;4.73;;
142;SDS011;63667;49.046;8.468;2023-03-23T06:57:43;5.07;;;4.27;;
142;SDS011;63667;49.046;8.468;2023-03-23T07:00:11;7.93;;;4.50;;
142;SDS011;63667;49.046;8.468;2023-03-23T07:02:39;6.10;;;3.93;;
142;SDS011;63667;49.046;8.468;2023-03-23T07:05:07;5.80;;;4.50;;
142;SDS011;63667;49.046;8.468;2023-03-23T07:07:38;5.57;;;4.57;;
142;SDS011;63667;49.046;8.468;2023-03-23T07:10:05;7.93;;;4.60;;
142;SDS011;63667;49.046;8.468;2023-03-23T07:12:33;11.03;;;4.97;;
142;SDS011;63667;49.046;8.468;2023-03-23T07:15:02;7.37;;;4.47;;
142;SDS011;63667;49.046;8.468;2023-03-23T07:17:29;6.70;;;4.17;;
142;SDS011;63667;49.046;8.468;2023-03-23T07:19:57;5.90;;;4.27;;
142;SDS011;63667;49.046;8.468;2023-03-23T07:22:25;6.00;;;4.20;;
142;SDS011;63667;49.046;8.468;2023-03-23T07:24:51;7.63;;;4.27;;
142;SDS011;63667;49.046;8.468;2023-03-23T07:27:19;8.20;;;4.23;;
142;SDS011;63667;49.046;8.468;2023-03-23T07:29:46;5.30;;;4.00;;
142;SDS011;63667;49.046;8.468;2023-03-23T07:32:13;5.93;;;4.60;;
142;SDS011;63667;49.046;8.468;2023-03-23T07:34:40;6.23;;;3.90;;
142;SDS011;63667;49.046;8.468;2023-03-23T07:37:08;6.70;;;4.20;;
142;SDS011;63667;49.046;8.468;2023-03-23T07:39:36;6.73;;;4.60;;
142;SDS011;63667;49.046;8.468;2023-03-23T07:42:03;5.77;;;4.40;;
142;SDS011;63667;49.046;8.468;2023-03-23T07:44:33;10.63;;;4.33;;
142;SDS011;63667;49.046;8.468;2023-03-23T07:47:00;7.80;;;4.57;;
142;SDS011;63667;49.046;8.468;2023-03-23T07:49:27;9.77;;;4.40;;
142;SDS011;63667;49.046;8.468;2023-03-23T07:51:56;6.40;;;4.30;;
142;SDS011;63667;49.046;8.468;2023-03-23T07:54:24;6.80;;;4.30;;
142;SDS011;63667;49.046;8.468;2023-03-23T07:56:51;6.97;;;4.60;;
142;SDS011;63667;49.046;8.468;2023-03-23T07:59:18;7.93;;;4.37;;
142;SDS011;63667;49.046;8.468;2023-03-23T08:01:46;5.17;;;4.00;;
142;SDS011;63667;49.046;8.468;2023-03-23T08:04:13;6.00;;;4.40;;
142;SDS011;63667;49.046;8.468;2023-03-23T08:06:41;7.27;;;4.27;;
142;SDS011;63667;49.046;8.468;2023-03-23T08:09:07;5.87;;;4.23;;
142;SDS011;63667;49.046;8.468;2023-03-23T08:11:36;6.90;;;4.30;;
142;SDS011;63667;49.046;8.468;2023-03-23T08:14:04;7.47;;;4.70;;
142;SDS011;63667;49.046;8.468;2023-03-23T08:16:32;6.63;;;4.60;;
142;SDS011;63667;49.046;8.468;2023-03-23T08:18:59;5.07;;;3.90;;
142;SDS011;63667;49.046;8.468;2023-03-23T08:21:28;11.87;;;4.47;;
142;SDS011;63667;49.046;8.468;2023-03-23T08:23:55;6.90;;;4.40;;
142;SDS011;63667;49.046;8.468;2023-03-23T08:26:23;5.83;;;4.13;;
142;SDS011;63667;49.046;8.468;2023-03-23T08:28:50;11.77;;;4.90;;
142;SDS011;63667;49.046;8.468;2023-03-23T08:31:19;8.53;;;4.30;;
142;SDS011;63667;49.046;8.468;2023-03-23T08:33:46;6.20;;;4.13;;
142;SDS011;63667;49.046;8.468;2023-03-23T08:36:14;7.13;;;4.50;;
142;SDS011;63667;49.046;8.468;2023-03-23T08:38:41;5.43;;;3.63;;
142;SDS011;63667;49.046;8.468;2023-03-23T08:41:10;8.63;;;3.73;;
142;SDS011;63667;49.046;8.468;2023-03-23T08:43:37;4.70;;;3.60;;
142;SDS011;63667;49.046;8.468;2023-03-23T08:46:08;5.83;;;3.50;;
142;SDS011;63667;49.046;8.468;2023-03-23T08:48:42;4.00;;;3.30;;
142;SDS011;63667;49.046;8.468;2023-03-23T08:51:09;4.33;;;2.80;;
142;SDS011;63667;49.046;8.468;2023-03-23T08:53:38;4.00;;;3.50;;
142;SDS011;63667;49.046;8.468;2023-03-23T08:56:06;4.10;;;3.00;;
142;SDS011;63667;49.046;8.468;2023-03-23T08:58:34;7.20;;;3.00;;
142;SDS011;63667;49.046;8.468;2023-03-23T09:01:01;5.37;;;3.10;;
142;SDS011;63667;49.046;8.468;2023-03-23T09:03:29;3.67;;;3.00;;
142;SDS011;63667;49.046;8.468;2023-03-23T09:05:59;5.20;;;3.00;;
142;SDS011;63667;49.046;8.468;2023-03-23T09:08:43;4.47;;;3.13;;
142;SDS011;63667;49.046;8.468;2023-03-23T09:11:11;3.33;;;2.80;;
142;SDS011;63667;49.046;8.468;2023-03-23T09:13:38;5.13;;;3.03;;
142;SDS011;63667;49.046;8.468;2023-03-23T09:16:05;7.40;;;3.10;;
142;SDS011;63667;49.046;8.468;2023-03-23T09:18:34;3.60;;;2.90;;
142;SDS011;63667;49.046;8.468;2023-03-23T09:21:02;4.47;;;3.30;;
142;SDS011;63667;49.046;8.468;2023-03-23T09:23:30;4.33;;;2.67;;
142;SDS011;63667;49.046;8.468;2023-03-23T09:25:59;5.03;;;3.30;;
142;SDS011;63667;49.046;8.468;2023-03-23T09:28:25;4.00;;;3.13;;
142;SDS011;63667;49.046;8.468;2023-03-23T09:30:54;3.37;;;3.00;;
142;SDS011;63667;49.046;8.468;2023-03-23T09:33:23;6.10;;;3.20;;
142;SDS011;63667;49.046;8.468;2023-03-23T09:35:50;3.83;;;3.10;;
142;SDS011;63667;49.046;8.468;2023-03-23T09:38:17;3.23;;;2.87;;
142;SDS011;63667;49.046;8.468;2023-03-23T09:51:17;5.07;;;3.03;;
142;SDS011;63667;49.046;8.468;2023-03-23T09:53:50;3.90;;;2.60;;
142;SDS011;63667;49.046;8.468;2023-03-23T09:56:18;4.47;;;2.83;;
142;SDS011;63667;49.046;8.468;2023-03-23T09:58:50;5.10;;;3.00;;
142;SDS011;63667;49.046;8.468;2023-03-23T10:01:22;6.43;;;2.50;;
142;SDS011;63667;49.046;8.468;2023-03-23T10:03:52;3.60;;;2.83;;
142;SDS011;63667;49.046;8.468;2023-03-23T10:06:20;3.80;;;2.60;;
142;SDS011;63667;49.046;8.468;2023-03-23T10:08:49;3.73;;;2.77;;
142;SDS011;63667;49.046;8.468;2023-03-23T10:17:07;3.73;;;2.80;;
142;SDS011;63667;49.046;8.468;2023-03-23T10:22:11;3.40;;;2.63;;
142;SDS011;63667;49.046;8.468;2023-03-23T10:24:45;4.67;;;2.70;;
142;SDS011;63667;49.046;8.468;2023-03-23T10:27:18;3.30;;;2.93;;
142;SDS011;63667;49.046;8.468;2023-03-23T10:29:49;3.70;;;2.90;;
142;SDS011;63667;49.046;8.468;2023-03-23T10:32:23;4.10;;;2.90;;
142;SDS011;63667;49.046;8.468;2023-03-23T10:34:56;4.10;;;3.10;;
142;SDS011;63667;49.046;8.468;2023-03-23T10:37:29;6.50;;;2.77;;
142;SDS011;63667;49.046;8.468;2023-03-23T10:39:59;3.27;;;3.03;;
142;SDS011;63667;49.046;8.468;2023-03-23T10:42:33;3.73;;;2.93;;
142;SDS011;63667;49.046;8.468;2023-03-23T10:47:37;3.87;;;2.87;;
142;SDS011;63667;49.046;8.468;2023-03-23T10:50:06;4.43;;;3.20;;
142;SDS011;63667;49.046;8.468;2023-03-23T10:52:39;4.10;;;3.00;;
142;SDS011;63667;49.046;8.468;2023-03-23T10:55:15;5.10;;;2.67;;
142;SDS011;63667;49.046;8.468;2023-03-23T11:00:32;5.20;;;2.83;;
142;SDS011;63667;49.046;8.468;2023-03-23T11:03:00;4.20;;;3.00;;
142;SDS011;63667;49.046;8.468;2023-03-23T11:05:38;3.40;;;3.00;;
142;SDS011;63667;49.046;8.468;2023-03-23T11:08:18;4.93;;;3.20;;
142;SDS011;63667;49.046;8.468;2023-03-23T11:10:49;3.30;;;3.13;;
142;SDS011;63667;49.046;8.468;2023-03-23T11:13:17;10.23;;;3.30;;
142;SDS011;63667;49.046;8.468;2023-03-23T11:15:45;5.33;;;3.33;;
142;SDS011;63667;49.046;8.468;2023-03-23T11:18:18;3.33;;;3.20;;
142;SDS011;63667;49.046;8.468;2023-03-23T11:20:46;6.90;;;3.03;;
142;SDS011;63667;49.046;8.468;2023-03-23T11:23:24;4.40;;;3.40;;
142;SDS011;63667;49.046;8.468;2023-03-23T11:28:30;11.87;;;3.67;;
142;SDS011;63667;49.046;8.468;2023-03-23T11:30:59;4.83;;;3.50;;
142;SDS011;63667;49.046;8.468;2023-03-23T11:33:35;6.50;;;3.47;;
142;SDS011;63667;49.046;8.468;2023-03-23T11:36:03;3.90;;;3.33;;
142;SDS011;63667;49.046;8.468;2023-03-23T11:38:31;3.93;;;3.00;;
142;SDS011;63667;49.046;8.468;2023-03-23T11:40:59;5.47;;;3.77;;
142;SDS011;63667;49.046;8.468;2023-03-23T11:43:26;5.97;;;3.20;;
142;SDS011;63667;49.046;8.468;2023-03-23T11:48:46;5.13;;;3.37;;
142;SDS011;63667;49.046;8.468;2023-03-23T11:51:19;3.47;;;3.10;;
142;SDS011;63667;49.046;8.468;2023-03-23T11:53:55;3.80;;;3.23;;
142;SDS011;63667;49.046;8.468;2023-03-23T11:56:28;4.67;;;2.97;;
142;SDS011;63667;49.046;8.468;2023-03-23T11:58:59;3.47;;;2.90;;
142;SDS011;63667;49.046;8.468;2023-03-23T12:06:49;3.80;;;3.10;;
142;SDS011;63667;49.046;8.468;2023-03-23T12:19:35;3.70;;;3.10;;
142;SDS011;63667;49.046;8.468;2023-03-23T12:40:56;3.53;;;2.80;;
142;SDS011;63667;49.046;8.468;2023-03-23T12:48:46;2.40;;;2.30;;
142;SDS011;63667;49.046;8.468;2023-03-23T12:56:43;4.20;;;2.70;;
142;SDS011;63667;49.046;8.468;2023-03-23T13:02:01;4.53;;;2.40;;
142;SDS011;63667;49.046;8.468;2023-03-23T13:04:32;4.73;;;2.90;;
142;SDS011;63667;49.046;8.468;2023-03-23T13:07:00;3.57;;;2.37;;
142;SDS011;63667;49.046;8.468;2023-03-23T13:09:53;5.00;;;2.73;;
142;SDS011;63667;49.046;8.468;2023-03-23T13:12:34;4.20;;;2.63;;
142;SDS011;63667;49.046;8.468;2023-03-23T13:15:18;4.03;;;2.57;;
142;SDS011;63667;49.046;8.468;2023-03-23T13:23:15;4.57;;;3.30;;
142;SDS011;63667;49.046;8.468;2023-03-23T13:28:25;3.50;;;2.83;;
142;SDS011;63667;49.046;8.468;2023-03-23T13:33:24;3.10;;;2.70;;
142;SDS011;63667;49.046;8.468;2023-03-23T13:35:51;8.00;;;3.00;;
142;SDS011;63667;49.046;8.468;2023-03-23T13:40:46;3.10;;;2.60;;
142;SDS011;63667;49.046;8.468;2023-03-23T13:43:24;2.93;;;2.70;;
142;SDS011;63667;49.046;8.468;2023-03-23T13:45:51;3.07;;;2.90;;
142;SDS011;63667;49.046;8.468;2023-03-23T13:48:22;3.53;;;2.83;;
142;SDS011;63667;49.046;8.468;2023-03-23T13:50:53;3.37;;;2.50;;
142;SDS011;63667;49.046;8.468;2023-03-23T13:53:26;3.13;;;2.83;;
142;SDS011;63667;49.046;8.468;2023-03-23T13:56:06;3.93;;;2.83;;
142;SDS011;63667;49.046;8.468;2023-03-23T13:58:43;3.67;;;2.90;;
142;SDS011;63667;49.046;8.468;2023-03-23T14:01:11;9.07;;;3.20;;
142;SDS011;63667;49.046;8.468;2023-03-23T14:03:43;3.53;;;3.13;;
142;SDS011;63667;49.046;8.468;2023-03-23T14:06:17;4.23;;;3.20;;
142;SDS011;63667;49.046;8.468;2023-03-23T14:08:45;4.73;;;3.07;;
142;SDS011;63667;49.046;8.468;2023-03-23T14:11:14;5.20;;;3.30;;
142;SDS011;63667;49.046;8.468;2023-03-23T14:13:58;5.23;;;3.17;;
142;SDS011;63667;49.046;8.468;2023-03-23T14:19:00;4.83;;;3.30;;
142;SDS011;63667;49.046;8.468;2023-03-23T14:21:38;5.43;;;3.63;;
142;SDS011;63667;49.046;8.468;2023-03-23T14:24:10;4.80;;;3.70;;
142;SDS011;63667;49.046;8.468;2023-03-23T14:26:37;4.33;;;3.60;;
142;SDS011;63667;49.046;8.468;2023-03-23T14:29:05;4.23;;;3.60;;
142;SDS011;63667;49.046;8.468;2023-03-23T14:31:32;3.80;;;3.23;;
142;SDS011;63667;49.046;8.468;2023-03-23T14:34:01;8.13;;;3.70;;
142;SDS011;63667;49.046;8.468;2023-03-23T14:36:30;5.07;;;3.80;;
142;SDS011;63667;49.046;8.468;2023-03-23T14:39:15;9.67;;;3.70;;
142;SDS011;63667;49.046;8.468;2023-03-23T14:41:46;5.73;;;3.70;;
142;SDS011;63667;49.046;8.468;2023-03-23T14:44:14;3.90;;;3.60;;
142;SDS011;63667;49.046;8.468;2023-03-23T14:46:45;5.83;;;4.00;;
142;SDS011;63667;49.046;8.468;2023-03-23T14:49:36;6.53;;;3.80;;
142;SDS011;63667;49.046;8.468;2023-03-23T14:52:14;5.20;;;3.47;;
142;SDS011;63667;49.046;8.468;2023-03-23T14:54:41;5.90;;;3.93;;
142;SDS011;63667;49.046;8.468;2023-03-23T14:57:14;7.87;;;4.47;;
142;SDS011;63667;49.046;8.468;2023-03-23T14:59:44;6.23;;;4.80;;
142;SDS011;63667;49.046;8.468;2023-03-23T15:02:13;9.13;;;4.23;;
142;SDS011;63667;49.046;8.468;2023-03-23T15:04:43;4.77;;;4.13;;
142;SDS011;63667;49.046;8.468;2023-03-23T15:07:10;4.60;;;4.23;;
142;SDS011;63667;49.046;8.468;2023-03-23T15:09:39;6.33;;;4.03;;
142;SDS011;63667;49.046;8.468;2023-03-23T15:12:09;4.13;;;3.57;;
142;SDS011;63667;49.046;8.468;2023-03-23T15:14:45;6.63;;;4.70;;
142;SDS011;63667;49.046;8.468;2023-03-23T15:17:30;5.93;;;4.10;;
142;SDS011;63667;49.046;8.468;2023-03-23T15:20:00;5.50;;;4.20;;
142;SDS011;63667;49.046;8.468;2023-03-23T15:22:35;4.93;;;4.00;;
142;SDS011;63667;49.046;8.468;2023-03-23T15:25:08;5.27;;;4.13;;
142;SDS011;63667;49.046;8.468;2023-03-23T15:27:43;8.70;;;3.63;;
142;SDS011;63667;49.046;8.468;2023-03-23T15:32:41;7.87;;;4.30;;
142;SDS011;63667;49.046;8.468;2023-03-23T15:35:15;5.43;;;4.33;;
142;SDS011;63667;49.046;8.468;2023-03-23T15:37:43;7.10;;;4.17;;
142;SDS011;63667;49.046;8.468;2023-03-23T15:40:17;6.00;;;4.60;;
142;SDS011;63667;49.046;8.468;2023-03-23T15:42:44;10.23;;;4.60;;
142;SDS011;63667;49.046;8.468;2023-03-23T15:52:44;7.43;;;4.03;;
142;SDS011;63667;49.046;8.468;2023-03-23T15:55:54;5.13;;;3.90;;
142;SDS011;63667;49.046;8.468;2023-03-23T15:58:07;9.90;;;5.30;;
142;SDS011;63667;49.046;8.468;2023-03-23T16:00:36;14.03;;;9.47;;
142;SDS011;63667;49.046;8.468;2023-03-23T16:03:04;16.20;;;11.80;;
142;SDS011;63667;49.046;8.468;2023-03-23T16:05:31;16.37;;;10.17;;
142;SDS011;63667;49.046;8.468;2023-03-23T16:07:59;14.73;;;8.83;;
142;SDS011;63667;49.046;8.468;2023-03-23T16:10:28;15.13;;;9.20;;
142;SDS011;63667;49.046;8.468;2023-03-23T16:12:55;23.30;;;11.70;;
142;SDS011;63667;49.046;8.468;2023-03-23T16:15:23;20.00;;;11.57;;
142;SDS011;63667;49.046;8.468;2023-03-23T16:17:50;15.13;;;9.63;;
142;SDS011;63667;49.046;8.468;2023-03-23T16:20:19;13.47;;;7.73;;
142;SDS011;63667;49.046;8.468;2023-03-23T16:22:47;15.87;;;8.43;;
142;SDS011;63667;49.046;8.468;2023-03-23T16:25:14;11.67;;;7.93;;
142;SDS011;63667;49.046;8.468;2023-03-23T16:27:41;5.80;;;4.43;;
142;SDS011;63667;49.046;8.468;2023-03-23T16:30:15;11.13;;;5.53;;
142;SDS011;63667;49.046;8.468;2023-03-23T16:32:45;5.70;;;4.33;;
142;SDS011;63667;49.046;8.468;2023-03-23T16:35:12;5.60;;;4.50;;
142;SDS011;63667;49.046;8.468;2023-03-23T16:37:47;10.63;;;4.50;;
142;SDS011;63667;49.046;8.468;2023-03-23T16:40:14;8.00;;;4.93;;
142;SDS011;63667;49.046;8.468;2023-03-23T16:42:42;10.20;;;4.67;;
142;SDS011;63667;49.046;8.468;2023-03-23T16:45:10;5.23;;;3.90;;
142;SDS011;63667;49.046;8.468;2023-03-23T16:47:37;6.03;;;4.70;;
142;SDS011;63667;49.046;8.468;2023-03-23T16:50:05;7.13;;;3.80;;
142;SDS011;63667;49.046;8.468;2023-03-23T16:52:33;7.03;;;4.13;;
142;SDS011;63667;49.046;8.468;2023-03-23T16:55:01;4.83;;;3.97;;
142;SDS011;63667;49.046;8.468;2023-03-23T16:57:29;9.70;;;4.80;;
142;SDS011;63667;49.046;8.468;2023-03-23T16:59:57;8.50;;;5.60;;
142;SDS011;63667;49.046;8.468;2023-03-23T17:02:25;7.97;;;5.00;;
142;SDS011;63667;49.046;8.468;2023-03-23T17:04:52;11.00;;;5.93;;
142;SDS011;63667;49.046;8.468;2023-03-23T17:07:19;14.77;;;6.10;;
142;SDS011;63667;49.046;8.468;2023-03-23T17:09:47;7.63;;;5.80;;
142;SDS011;63667;49.046;8.468;2023-03-23T17:12:14;11.37;;;6.90;;
142;SDS011;63667;49.046;8.468;2023-03-23T17:14:41;21.60;;;6.80;;
142;SDS011;63667;49.046;8.468;2023-03-23T17:17:08;13.27;;;6.07;;
142;SDS011;63667;49.046;8.468;2023-03-23T17:19:35;10.00;;;6.07;;
142;SDS011;63667;49.046;8.468;2023-03-23T17:22:03;11.73;;;5.70;;
142;SDS011;63667;49.046;8.468;2023-03-23T17:24:30;10.67;;;6.63;;
142;SDS011;63667;49.046;8.468;2023-03-23T17:26:57;10.10;;;5.10;;